Time;durP1;ratioP1;P1;durP2;ratioP2;P2;SDS_P1;SDS_P2;PMS_P1;PMS_P2;Temp;Humidity;BMP_temperature;BMP_pressure;BME280_temperature;BME280_humidity;BME280_pressure;Samples;Min_cycle;Max_cycle;Signal;HPM_P1;HPM_P2
2022/04/24 00:00:06;;;;;;;73.50;36.05;;;6.90;99.90;;;;;;5039717;28;20078;-52
2022/04/24 00:02:33;;;;;;;63.63;35.75;;;6.90;99.90;;;;;;5040730;28;20041;-51
2022/04/24 00:04:59;;;;;;;62.25;32.60;;;6.90;99.90;;;;;;5040807;28;20115;-52
2022/04/24 00:07:25;;;;;;;72.25;36.58;;;6.90;99.90;;;;;;5037428;28;20172;-51
2022/04/24 00:09:50;;;;;;;68.47;37.03;;;6.80;99.90;;;;;;5040512;28;20028;-51
2022/04/24 00:12:17;;;;;;;80.85;37.95;;;6.70;99.90;;;;;;5042684;28;20075;-52
2022/04/24 00:14:44;;;;;;;73.75;39.10;;;6.60;99.90;;;;;;5039662;28;20093;-51
2022/04/24 00:17:10;;;;;;;90.97;45.20;;;6.60;99.90;;;;;;5040098;28;20480;-52
2022/04/24 00:19:37;;;;;;;87.68;46.65;;;6.40;99.90;;;;;;5054481;28;20616;-52
2022/04/24 00:22:03;;;;;;;81.18;44.67;;;6.40;99.90;;;;;;5047055;28;20373;-52
2022/04/24 00:24:28;;;;;;;76.82;42.58;;;6.50;99.90;;;;;;5045910;28;20504;-52
2022/04/24 00:26:54;;;;;;;81.70;41.30;;;6.50;99.90;;;;;;5040062;28;20032;-52
2022/04/24 00:29:21;;;;;;;68.75;38.25;;;6.40;99.90;;;;;;5039210;28;20057;-51
2022/04/24 00:31:47;;;;;;;76.65;39.05;;;6.50;99.90;;;;;;5039765;28;20437;-51
2022/04/24 00:34:12;;;;;;;73.55;37.50;;;6.40;99.90;;;;;;5040948;28;20033;-51
2022/04/24 00:36:38;;;;;;;74.65;35.95;;;6.50;99.90;;;;;;5038635;28;20215;-52
2022/04/24 00:39:04;;;;;;;53.00;31.83;;;6.50;99.90;;;;;;5042155;28;20042;-51
2022/04/24 00:41:30;;;;;;;63.38;34.38;;;6.50;99.90;;;;;;5035979;28;20057;-49
2022/04/24 00:43:56;;;;;;;60.88;32.88;;;6.50;99.90;;;;;;5031414;28;20179;-52
2022/04/24 00:46:52;;;;;;;58.05;32.42;;;6.60;99.90;;;;;;5031347;28;20029;-52
2022/04/24 00:49:18;;;;;;;56.70;31.45;;;6.70;99.90;;;;;;5013775;28;20060;-51
2022/04/24 00:51:44;;;;;;;52.35;31.58;;;6.70;99.90;;;;;;5031512;28;20022;-51
2022/04/24 00:54:11;;;;;;;55.35;32.63;;;6.70;99.90;;;;;;5031278;28;20029;-53
2022/04/24 00:56:38;;;;;;;54.08;30.75;;;6.80;99.90;;;;;;5031077;28;20122;-51
2022/04/24 00:59:07;;;;;;;58.50;32.38;;;6.80;99.90;;;;;;5057777;28;20032;-51
2022/04/24 01:01:33;;;;;;;58.88;34.00;;;6.90;99.90;;;;;;5049935;28;20029;-51
2022/04/24 01:04:01;;;;;;;58.00;33.15;;;6.90;99.90;;;;;;5049982;28;20032;-51
2022/04/24 01:06:33;;;;;;;;;;;6.90;99.90;;;;;;5051524;28;20033;-53
2022/04/24 01:09:20;;;;;;;60.03;32.90;;;6.90;99.90;;;;;;5046533;28;20426;-52
2022/04/24 01:11:48;;;;;;;55.08;31.88;;;7.00;99.90;;;;;;5070524;28;20016;-53
2022/04/24 01:14:17;;;;;;;56.80;32.00;;;7.10;99.90;;;;;;5030899;28;20125;-51
2022/04/24 01:16:45;;;;;;;51.63;30.25;;;7.10;99.90;;;;;;5030987;28;20055;-51
2022/04/24 01:19:12;;;;;;;55.95;31.75;;;7.10;99.90;;;;;;5033493;28;20076;-52
2022/04/24 01:21:43;;;;;;;57.95;31.13;;;7.10;99.90;;;;;;5049867;28;20170;-51
2022/04/24 01:24:10;;;;;;;51.95;31.67;;;7.10;99.90;;;;;;5070510;28;20488;-52
2022/04/24 01:26:36;;;;;;;60.20;30.20;;;7.10;99.90;;;;;;5070546;28;20020;-52
2022/04/24 01:29:04;;;;;;;54.90;29.90;;;7.20;99.90;;;;;;5052450;28;20035;-51
2022/04/24 01:31:30;;;;;;;57.75;30.90;;;7.20;99.90;;;;;;5052091;28;20115;-51
2022/04/24 01:33:56;;;;;;;49.75;30.17;;;7.20;99.90;;;;;;5070172;28;20036;-52
2022/04/24 01:36:22;;;;;;;57.15;30.98;;;7.20;99.90;;;;;;5070150;28;20021;-52
2022/04/24 01:38:48;;;;;;;49.33;29.60;;;7.20;99.90;;;;;;5068715;28;20040;-52
2022/04/24 01:41:13;;;;;;;54.30;31.50;;;7.30;99.90;;;;;;5070219;28;20048;-52
2022/04/24 01:43:39;;;;;;;46.10;29.15;;;7.30;99.90;;;;;;5070067;28;20412;-53
2022/04/24 01:46:06;;;;;;;53.53;31.20;;;7.30;99.90;;;;;;5069660;28;20029;-52
2022/04/24 01:48:35;;;;;;;45.13;27.45;;;7.40;99.90;;;;;;5070105;28;20035;-51
2022/04/24 01:51:06;;;;;;;47.40;27.70;;;7.40;99.90;;;;;;5070024;28;20035;-51
2022/04/24 01:53:32;;;;;;;51.83;30.08;;;7.40;99.90;;;;;;5070296;28;20021;-51
2022/04/24 01:55:59;;;;;;;52.50;28.98;;;7.50;99.90;;;;;;5070034;28;20111;-52
2022/04/24 01:58:26;;;;;;;52.08;30.40;;;7.60;99.90;;;;;;5050277;28;20768;-52
2022/04/24 02:00:53;;;;;;;45.23;27.37;;;7.60;99.90;;;;;;5049950;28;20384;-52
2022/04/24 02:03:20;;;;;;;49.40;29.15;;;7.60;99.90;;;;;;5065160;28;20040;-51
2022/04/24 02:05:45;;;;;;;53.70;29.92;;;7.70;99.90;;;;;;5049766;28;20045;-51
2022/04/24 02:08:12;;;;;;;51.53;30.42;;;7.70;99.90;;;;;;5049654;28;20495;-52
2022/04/24 02:10:38;;;;;;;51.63;29.87;;;7.70;99.90;;;;;;5049707;28;20024;-52
2022/04/24 02:13:04;;;;;;;50.13;29.85;;;7.70;99.90;;;;;;5049632;28;20700;-52
2022/04/24 02:15:30;;;;;;;51.05;29.13;;;7.70;99.90;;;;;;5049726;28;20025;-51
2022/04/24 02:17:56;;;;;;;54.95;29.25;;;7.70;99.90;;;;;;5049326;28;20028;-52
2022/04/24 02:20:23;;;;;;;52.30;30.30;;;7.70;99.90;;;;;;5061898;28;20110;-51
2022/04/24 02:22:49;;;;;;;47.83;29.63;;;7.70;99.90;;;;;;5069404;28;20020;-52
2022/04/24 02:25:17;;;;;;;48.17;29.15;;;7.70;99.90;;;;;;5068996;28;20029;-52
2022/04/24 02:27:44;;;;;;;52.10;30.08;;;7.80;99.90;;;;;;5069599;28;20052;-52
2022/04/24 02:30:10;;;;;;;49.05;28.90;;;7.70;99.90;;;;;;5069102;28;20139;-51
2022/04/24 02:32:36;;;;;;;48.10;28.45;;;7.70;99.90;;;;;;5069404;28;20483;-52
2022/04/24 02:35:02;;;;;;;44.90;26.33;;;7.70;99.90;;;;;;5068743;28;20348;-51
2022/04/24 02:37:28;;;;;;;48.83;26.95;;;7.70;99.90;;;;;;5069302;28;20946;-51
2022/04/24 02:39:54;;;;;;;53.05;29.38;;;7.70;99.90;;;;;;5050843;28;20028;-53
2022/04/24 02:42:19;;;;;;;50.65;28.77;;;7.70;99.90;;;;;;5069123;28;20068;-52
2022/04/24 02:44:45;;;;;;;47.33;28.80;;;7.80;99.90;;;;;;5069019;28;20468;-52
2022/04/24 02:47:11;;;;;;;50.65;28.33;;;7.80;99.90;;;;;;5068952;28;20100;-52
2022/04/24 02:49:37;;;;;;;51.05;28.27;;;7.80;99.90;;;;;;5068896;28;20093;-51
2022/04/24 02:52:03;;;;;;;40.80;26.13;;;7.90;99.90;;;;;;5069201;28;20021;-52
2022/04/24 02:54:29;;;;;;;45.20;26.38;;;7.90;99.90;;;;;;5050792;28;20031;-52
2022/04/24 02:56:54;;;;;;;46.33;27.23;;;7.90;99.90;;;;;;5068053;28;20103;-52
2022/04/24 02:59:20;;;;;;;45.42;26.77;;;7.90;99.90;;;;;;5068865;28;20116;-52
2022/04/24 03:01:46;;;;;;;50.45;28.33;;;8.00;99.90;;;;;;5069095;28;20026;-52
2022/04/24 03:04:12;;;;;;;44.78;25.10;;;8.00;99.90;;;;;;5068561;28;20052;-53
2022/04/24 03:06:38;;;;;;;52.80;26.90;;;7.90;99.90;;;;;;5067343;28;20028;-51
2022/04/24 03:09:05;;;;;;;44.03;24.85;;;7.90;99.90;;;;;;5068949;28;20274;-52
2022/04/24 03:11:31;;;;;;;42.92;25.05;;;7.90;99.90;;;;;;5068603;28;20029;-51
2022/04/24 03:13:57;;;;;;;45.10;25.38;;;7.90;99.90;;;;;;5033476;28;20026;-52
2022/04/24 03:16:23;;;;;;;42.38;24.80;;;8.00;99.90;;;;;;5029199;28;20091;-52
2022/04/24 03:18:49;;;;;;;45.35;26.60;;;8.00;99.90;;;;;;5029037;28;20038;-51
2022/04/24 03:21:14;;;;;;;41.75;24.63;;;8.00;99.90;;;;;;5068430;28;20051;-51
2022/04/24 03:23:40;;;;;;;43.33;26.05;;;8.10;99.90;;;;;;5068587;28;20043;-52
2022/04/24 03:26:06;;;;;;;45.85;27.92;;;8.10;99.90;;;;;;5068351;28;20381;-53
2022/04/24 03:28:32;;;;;;;48.60;26.92;;;8.10;99.90;;;;;;5068603;28;20036;-51
2022/04/24 03:30:58;;;;;;;42.72;27.10;;;8.20;99.90;;;;;;5068449;28;20066;-52
2022/04/24 03:33:24;;;;;;;44.80;27.00;;;8.20;99.90;;;;;;5068553;28;20032;-51
2022/04/24 03:35:49;;;;;;;42.28;27.60;;;8.10;99.90;;;;;;5068042;28;20028;-51
2022/04/24 03:38:16;;;;;;;44.42;26.75;;;8.10;99.90;;;;;;5068563;28;20056;-51
2022/04/24 03:40:41;;;;;;;45.30;25.65;;;8.20;99.90;;;;;;5068426;28;20040;-53
2022/04/24 03:43:07;;;;;;;46.75;26.02;;;8.20;99.90;;;;;;5068312;28;20059;-52
2022/04/24 03:45:33;;;;;;;43.38;24.48;;;8.20;99.90;;;;;;5068316;28;20020;-52
2022/04/24 03:47:58;;;;;;;44.47;25.90;;;8.30;99.90;;;;;;5068387;28;20036;-52
2022/04/24 03:50:24;;;;;;;43.10;24.95;;;8.30;99.90;;;;;;5068386;28;20027;-51
2022/04/24 03:52:50;;;;;;;45.03;25.35;;;8.30;99.90;;;;;;5068238;28;20036;-52
2022/04/24 03:55:15;;;;;;;44.65;25.40;;;8.30;99.90;;;;;;5068241;28;20024;-51
2022/04/24 03:57:41;;;;;;;43.25;24.30;;;8.30;99.90;;;;;;5068454;28;20111;-52
2022/04/24 04:00:08;;;;;;;44.92;24.63;;;8.30;99.90;;;;;;5068301;28;20271;-52
2022/04/24 04:02:46;;;;;;;42.77;25.03;;;8.40;99.90;;;;;;5068593;28;20028;-52
2022/04/24 04:05:12;;;;;;;38.55;23.02;;;8.30;99.90;;;;;;5068170;28;20589;-51
2022/04/24 04:07:38;;;;;;;38.10;24.17;;;8.40;99.90;;;;;;5068237;28;20048;-52
2022/04/24 04:10:06;;;;;;;40.83;24.58;;;8.40;99.90;;;;;;5071302;28;20306;-51
2022/04/24 04:12:32;;;;;;;41.33;24.10;;;8.40;99.90;;;;;;5059860;28;20033;-52
2022/04/24 04:15:03;;;;;;;41.20;24.25;;;8.40;99.90;;;;;;5031765;28;20030;-52
2022/04/24 04:17:29;;;;;;;35.92;21.98;;;8.40;99.90;;;;;;5032050;28;20034;-52
2022/04/24 04:19:54;;;;;;;40.03;20.45;;;8.40;99.90;;;;;;5049406;28;20074;-51
2022/04/24 04:22:20;;;;;;;37.03;21.05;;;8.40;99.90;;;;;;5071892;28;20032;-52
2022/04/24 04:24:46;;;;;;;34.78;20.98;;;8.50;99.90;;;;;;5071673;28;20125;-52
2022/04/24 04:27:13;;;;;;;37.42;21.63;;;8.50;99.90;;;;;;5071358;28;20029;-52
2022/04/24 04:29:39;;;;;;;32.08;19.90;;;8.50;99.90;;;;;;5071764;28;20035;-52
2022/04/24 04:32:05;;;;;;;35.78;20.95;;;8.50;99.90;;;;;;5071542;28;20737;-52
2022/04/24 04:34:30;;;;;;;32.85;19.70;;;8.50;99.90;;;;;;5071616;28;20021;-52
2022/04/24 04:36:56;;;;;;;36.90;20.08;;;8.50;99.90;;;;;;5071073;28;20036;-51
2022/04/24 04:39:22;;;;;;;34.30;19.17;;;8.60;99.90;;;;;;5071633;28;20066;-51
2022/04/24 04:41:47;;;;;;;29.23;17.98;;;8.60;99.90;;;;;;5071319;28;20063;-52
2022/04/24 04:44:13;;;;;;;29.92;18.98;;;8.60;99.90;;;;;;5071208;28;20036;-52
2022/04/24 04:46:39;;;;;;;36.70;18.38;;;8.60;99.90;;;;;;5071183;28;20052;-52
2022/04/24 04:49:04;;;;;;;30.13;19.83;;;8.60;99.90;;;;;;5053440;28;20052;-52
2022/04/24 04:51:30;;;;;;;33.22;20.48;;;8.60;99.90;;;;;;5071034;28;20021;-51
2022/04/24 04:53:56;;;;;;;32.10;18.42;;;8.60;99.90;;;;;;5071193;28;20040;-52
2022/04/24 04:56:23;;;;;;;30.25;19.40;;;8.60;99.90;;;;;;5071241;28;20029;-51
2022/04/24 04:58:49;;;;;;;31.42;19.73;;;8.60;99.90;;;;;;5071237;28;20111;-52
2022/04/24 05:01:15;;;;;;;33.67;21.70;;;8.60;99.90;;;;;;5071176;28;20024;-51
2022/04/24 05:03:40;;;;;;;32.38;21.27;;;8.60;99.90;;;;;;5071049;28;20436;-52
2022/04/24 05:06:07;;;;;;;35.10;20.45;;;8.60;99.90;;;;;;5070890;28;20177;-52
2022/04/24 05:08:33;;;;;;;27.95;20.85;;;8.60;99.90;;;;;;5071064;28;20050;-51
2022/04/24 05:10:59;;;;;;;32.17;21.80;;;8.50;99.90;;;;;;5070931;28;20029;-52
2022/04/24 05:13:25;;;;;;;32.72;21.33;;;8.50;99.90;;;;;;5044590;28;20071;-52
2022/04/24 05:15:50;;;;;;;35.17;23.27;;;8.50;99.90;;;;;;5030698;28;20101;-51
2022/04/24 05:18:16;;;;;;;35.83;22.98;;;8.50;99.90;;;;;;5030958;28;20473;-52
2022/04/24 05:20:45;;;;;;;34.60;23.67;;;8.40;99.90;;;;;;5060712;28;20036;-53
2022/04/24 05:23:11;;;;;;;36.90;24.35;;;8.40;99.90;;;;;;5070391;28;20603;-51
2022/04/24 05:25:37;;;;;;;37.88;24.63;;;8.50;99.90;;;;;;5070210;28;20794;-51
2022/04/24 05:28:06;;;;;;;39.08;25.40;;;8.50;99.90;;;;;;5070911;28;20086;-52
2022/04/24 05:30:33;;;;;;;39.67;25.80;;;8.50;99.90;;;;;;5070386;28;20492;-52
2022/04/24 05:32:59;;;;;;;40.08;27.08;;;8.40;99.90;;;;;;5070425;28;20078;-52
2022/04/24 05:35:24;;;;;;;38.95;27.05;;;8.40;99.90;;;;;;5070215;28;20056;-51
2022/04/24 05:37:51;;;;;;;44.33;28.65;;;8.40;99.90;;;;;;5070551;28;20450;-51
2022/04/24 05:40:17;;;;;;;41.40;27.25;;;8.40;99.90;;;;;;5041950;28;20029;-51
2022/04/24 05:42:53;;;;;;;38.97;26.70;;;8.40;99.90;;;;;;5030410;28;20036;-52
2022/04/24 05:45:24;;;;;;;40.08;28.30;;;8.30;99.90;;;;;;5030221;28;20033;-52
2022/04/24 05:47:51;;;;;;;43.97;27.30;;;8.40;99.90;;;;;;5030533;28;20488;-52
2022/04/24 05:50:17;;;;;;;39.63;26.40;;;8.40;99.90;;;;;;5030490;28;20112;-52
2022/04/24 05:52:43;;;;;;;39.75;27.27;;;8.50;99.90;;;;;;5030062;28;20025;-51
2022/04/24 05:55:10;;;;;;;38.83;26.80;;;8.50;99.90;;;;;;5029877;28;20087;-51
2022/04/24 05:57:36;;;;;;;39.05;28.05;;;8.50;99.90;;;;;;5056295;28;20105;-51
2022/04/24 06:00:09;;;;;;;44.63;30.27;;;8.50;99.90;;;;;;5070421;28;20068;-51
2022/04/24 06:02:35;;;;;;;42.28;30.02;;;8.50;99.90;;;;;;5069942;28;20066;-51
2022/04/24 06:05:01;;;;;;;47.08;32.50;;;8.50;99.90;;;;;;5069475;28;20480;-51
2022/04/24 06:07:26;;;;;;;48.50;31.63;;;8.50;99.90;;;;;;5069684;28;20043;-52
2022/04/24 06:09:52;;;;;;;43.13;30.42;;;8.40;99.90;;;;;;5069556;28;20048;-51
2022/04/24 06:12:18;;;;;;;43.17;31.05;;;8.50;99.90;;;;;;5061769;28;20105;-51
2022/04/24 06:14:44;;;;;;;38.78;27.45;;;8.40;99.90;;;;;;5029498;28;20048;-52
2022/04/24 06:17:09;;;;;;;42.90;27.77;;;8.50;99.90;;;;;;5029625;28;20021;-51
2022/04/24 06:19:35;;;;;;;40.45;27.27;;;8.40;99.90;;;;;;5041884;28;20033;-52
2022/04/24 06:22:01;;;;;;;38.47;26.27;;;8.40;99.90;;;;;;5069392;28;20031;-52
2022/04/24 06:24:27;;;;;;;39.70;25.65;;;8.40;99.90;;;;;;5069189;28;20044;-52
2022/04/24 06:26:52;;;;;;;37.95;25.90;;;8.40;99.90;;;;;;5068920;28;20383;-52
2022/04/24 06:29:18;;;;;;;36.65;25.48;;;8.40;99.90;;;;;;5069392;28;20028;-51
2022/04/24 06:31:44;;;;;;;37.92;26.80;;;8.50;99.90;;;;;;5069072;28;20036;-52
2022/04/24 06:34:10;;;;;;;45.95;28.33;;;8.40;99.90;;;;;;5069027;28;20082;-52
2022/04/24 06:36:37;;;;;;;40.50;27.43;;;8.40;99.90;;;;;;5050977;28;20060;-51
2022/04/24 06:39:02;;;;;;;44.63;29.08;;;8.40;99.90;;;;;;5051049;28;20314;-51
2022/04/24 06:41:29;;;;;;;45.03;29.10;;;8.40;99.90;;;;;;5068904;28;20076;-52
2022/04/24 06:43:55;;;;;;;40.70;27.83;;;8.40;99.90;;;;;;5069180;28;20036;-51
2022/04/24 06:46:21;;;;;;;43.03;28.55;;;8.40;99.90;;;;;;5069027;28;20086;-53
2022/04/24 06:48:46;;;;;;;36.13;26.90;;;8.50;99.90;;;;;;5068968;28;20380;-51
2022/04/24 06:51:12;;;;;;;39.78;27.95;;;8.50;99.90;;;;;;5069046;28;20054;-51
2022/04/24 06:53:39;;;;;;;38.13;26.85;;;8.50;99.90;;;;;;5068833;28;20037;-52
2022/04/24 06:56:06;;;;;;;36.15;25.40;;;8.50;99.90;;;;;;5068610;28;20032;-51
2022/04/24 06:58:31;;;;;;;35.90;25.58;;;8.60;99.90;;;;;;5069068;28;20072;-51
2022/04/24 07:00:57;;;;;;;37.10;24.17;;;8.60;99.90;;;;;;5068619;28;20055;-52
2022/04/24 07:03:26;;;;;;;33.90;23.30;;;8.60;99.90;;;;;;5068737;28;20424;-52
2022/04/24 07:06:00;;;;;;;36.30;24.85;;;8.60;99.90;;;;;;5068790;28;20034;-51
2022/04/24 07:08:26;;;;;;;34.97;24.80;;;8.70;99.90;;;;;;5068788;28;20029;-52
2022/04/24 07:10:53;;;;;;;36.92;24.85;;;8.60;99.90;;;;;;5068702;28;20028;-51
2022/04/24 07:13:19;;;;;;;35.57;23.87;;;8.70;99.90;;;;;;5044049;28;20354;-52
2022/04/24 07:15:45;;;;;;;35.53;24.03;;;8.70;99.90;;;;;;5028441;28;20455;-51
2022/04/24 07:18:11;;;;;;;36.28;23.35;;;8.70;99.90;;;;;;5028605;28;20025;-51
2022/04/24 07:20:37;;;;;;;33.05;21.98;;;8.70;99.90;;;;;;5057904;28;20078;-51
2022/04/24 07:23:05;;;;;;;33.83;23.63;;;8.70;99.90;;;;;;5068622;28;20519;-52
2022/04/24 07:25:40;;;;;;;35.60;23.77;;;8.80;99.90;;;;;;5068190;28;20029;-52
2022/04/24 07:28:09;;;;;;;34.22;21.75;;;8.90;99.90;;;;;;5068563;28;20017;-52
2022/04/24 07:30:35;;;;;;;34.00;22.30;;;8.90;99.90;;;;;;5068632;28;20048;-51
2022/04/24 07:33:01;;;;;;;29.38;20.90;;;8.90;99.90;;;;;;5068423;28;20032;-54
2022/04/24 07:35:32;;;;;;;31.40;21.30;;;8.90;99.90;;;;;;5067990;28;20063;-52
2022/04/24 07:37:58;;;;;;;28.67;21.17;;;9.00;99.90;;;;;;5068459;28;20092;-51
2022/04/24 07:40:27;;;;;;;27.58;20.05;;;9.00;99.90;;;;;;5067978;28;20021;-51
2022/04/24 07:42:56;;;;;;;31.65;21.00;;;9.00;99.90;;;;;;5057987;28;20484;-51
2022/04/24 07:45:26;;;;;;;35.42;24.02;;;9.10;99.90;;;;;;5051681;28;20033;-52
2022/04/24 07:47:53;;;;;;;33.83;23.65;;;9.10;99.90;;;;;;5052414;28;20036;-52
2022/04/24 07:50:21;;;;;;;33.83;23.67;;;9.10;99.90;;;;;;5051845;28;20029;-52
2022/04/24 07:52:48;;;;;;;33.47;21.95;;;9.20;99.90;;;;;;5051984;28;20025;-52
2022/04/24 07:55:21;;;;;;;33.22;22.50;;;9.20;99.90;;;;;;5051890;28;20025;-52
2022/04/24 07:57:48;;;;;;;32.10;20.25;;;9.30;99.90;;;;;;5066340;28;20119;-51
2022/04/24 08:00:15;;;;;;;27.45;20.85;;;9.40;99.90;;;;;;5072152;28;20561;-52
2022/04/24 08:02:48;;;;;;;27.63;20.75;;;9.40;99.90;;;;;;5072027;28;20024;-52
2022/04/24 08:05:42;;;;;;;28.10;19.58;;;9.40;99.90;;;;;;5070347;28;20070;-52
2022/04/24 08:08:10;;;;;;;29.83;19.85;;;9.50;99.90;;;;;;5071800;28;20070;-52
2022/04/24 08:10:38;;;;;;;27.50;19.20;;;9.50;99.90;;;;;;5071640;28;20050;-52
2022/04/24 08:13:05;;;;;;;25.38;18.88;;;9.60;99.90;;;;;;5051144;28;20083;-52
2022/04/24 08:15:32;;;;;;;28.20;18.08;;;9.50;99.90;;;;;;5031587;28;20049;-52
2022/04/24 08:17:58;;;;;;;28.63;19.17;;;9.60;99.90;;;;;;5031779;28;20041;-52
2022/04/24 08:20:24;;;;;;;28.15;19.55;;;9.60;99.90;;;;;;5057126;28;20033;-52
2022/04/24 08:22:52;;;;;;;26.98;19.25;;;9.60;99.90;;;;;;5071463;28;20074;-51
2022/04/24 08:25:20;;;;;;;31.02;20.20;;;9.60;99.90;;;;;;5071531;28;20037;-51
2022/04/24 08:27:47;;;;;;;30.55;21.52;;;9.60;99.90;;;;;;5071750;28;20020;-52
2022/04/24 08:30:14;;;;;;;39.40;23.50;;;9.60;99.90;;;;;;5071223;28;20104;-52
2022/04/24 08:32:41;;;;;;;34.20;22.85;;;9.60;99.90;;;;;;5071605;28;20092;-51
2022/04/24 08:35:08;;;;;;;32.13;22.55;;;9.60;99.90;;;;;;5071230;28;20033;-51
2022/04/24 08:37:34;;;;;;;32.05;21.90;;;9.60;99.90;;;;;;5071393;28;20099;-52
2022/04/24 08:39:59;;;;;;;33.38;22.75;;;9.60;99.90;;;;;;5071349;28;20120;-51
2022/04/24 08:42:26;;;;;;;32.95;22.88;;;9.60;99.90;;;;;;5071230;28;20137;-51
2022/04/24 08:44:56;;;;;;;36.13;23.23;;;9.60;99.90;;;;;;5071489;28;20040;-51
2022/04/24 08:47:24;;;;;;;37.60;24.02;;;9.60;99.90;;;;;;5071383;28;20028;-52
2022/04/24 08:49:53;;;;;;;36.25;24.67;;;9.60;99.90;;;;;;5070722;28;20055;-50
2022/04/24 08:52:20;;;;;;;42.83;27.60;;;9.70;99.90;;;;;;5071333;28;20027;-52
2022/04/24 08:54:46;;;;;;;39.63;24.52;;;9.60;99.90;;;;;;5069865;28;20032;-51
2022/04/24 08:57:13;;;;;;;40.13;25.80;;;9.60;99.90;;;;;;5070891;28;20385;-52
2022/04/24 08:59:39;;;;;;;42.33;26.30;;;9.70;99.90;;;;;;5070838;28;20066;-51
2022/04/24 09:02:06;;;;;;;30.27;21.27;;;9.60;99.90;;;;;;5046217;28;20044;-51
2022/04/24 09:04:36;;;;;;;31.93;20.67;;;9.70;99.90;;;;;;5021166;28;20405;-52
2022/04/24 09:07:05;;;;;;;28.50;18.67;;;9.60;99.90;;;;;;5040184;28;20086;-51
2022/04/24 09:09:38;;;;;;;29.35;18.80;;;9.60;99.90;;;;;;5038353;28;20028;-51
2022/04/24 09:12:11;;;;;;;28.90;18.73;;;9.60;99.90;;;;;;5041315;28;20060;-51
2022/04/24 09:14:37;;;;;;;26.70;17.52;;;9.60;99.90;;;;;;5039456;28;20063;-51
2022/04/24 09:17:30;;;;;;;29.10;18.90;;;9.60;99.90;;;;;;5040569;28;20017;-52
2022/04/24 09:19:57;;;;;;;24.10;17.00;;;9.60;99.90;;;;;;5052331;28;20064;-52
2022/04/24 09:22:23;;;;;;;26.58;16.77;;;9.60;99.90;;;;;;5070919;28;20028;-50
2022/04/24 09:24:57;;;;;;;27.67;17.83;;;9.60;99.90;;;;;;5070428;28;20046;-51
2022/04/24 09:27:27;;;;;;;29.25;18.13;;;9.60;99.90;;;;;;5070195;28;20309;-50
2022/04/24 09:29:55;;;;;;;31.98;19.40;;;9.70;99.90;;;;;;5070567;28;20132;-52
2022/04/24 09:32:23;;;;;;;24.20;16.35;;;9.70;99.90;;;;;;5070525;28;20115;-50
2022/04/24 09:34:50;;;;;;;27.95;18.73;;;9.80;99.90;;;;;;5070289;28;20123;-51
2022/04/24 09:37:17;;;;;;;30.27;19.17;;;9.80;99.90;;;;;;5052672;28;20028;-51
2022/04/24 09:39:43;;;;;;;29.98;20.35;;;9.80;99.90;;;;;;5051883;28;20055;-51
2022/04/24 09:42:13;;;;;;;29.95;20.15;;;9.90;99.90;;;;;;5070100;28;20474;-50
2022/04/24 09:44:50;;;;;;;31.48;20.52;;;9.90;99.90;;;;;;5070266;28;20468;-51
2022/04/24 09:47:24;;;;;;;27.30;19.00;;;9.90;99.90;;;;;;5069814;28;20029;-50
2022/04/24 09:49:50;;;;;;;28.45;19.50;;;10.00;99.90;;;;;;5050529;28;20028;-50
2022/04/24 09:52:25;;;;;;;28.75;19.80;;;10.00;99.90;;;;;;5040626;28;20120;-51
2022/04/24 09:54:54;;;;;;;28.60;18.88;;;10.10;99.90;;;;;;5037575;28;20036;-51
2022/04/24 09:57:23;;;;;;;28.80;19.23;;;10.10;99.90;;;;;;5041705;28;20037;-50
2022/04/24 09:59:51;;;;;;;28.40;19.48;;;10.10;99.90;;;;;;5037885;28;20064;-50
2022/04/24 10:02:18;;;;;;;30.00;18.80;;;10.20;99.90;;;;;;5030031;28;20034;-50
2022/04/24 10:04:46;;;;;;;26.38;18.00;;;10.30;99.90;;;;;;5044525;28;20040;-49
2022/04/24 10:07:21;;;;;;;31.75;21.00;;;10.30;99.90;;;;;;5037141;28;20032;-52
2022/04/24 10:09:47;;;;;;;29.42;20.00;;;10.30;99.90;;;;;;5029076;28;20068;-50
2022/04/24 10:12:18;;;;;;;25.60;18.73;;;10.40;99.90;;;;;;5032416;28;20044;-50
2022/04/24 10:14:49;;;;;;;29.83;20.35;;;10.40;99.90;;;;;;5049352;28;20021;-51
2022/04/24 10:17:48;;;;;;;28.13;18.77;;;10.50;99.90;;;;;;5048849;28;20504;-50
2022/04/24 10:20:51;;;;;;;31.63;20.15;;;10.50;99.90;;;;;;5056443;28;20535;-51
2022/04/24 10:23:28;;;;;;;28.17;18.45;;;10.60;99.90;;;;;;5035961;28;20037;-51
2022/04/24 10:25:53;;;;;;;29.45;18.38;;;10.60;99.90;;;;;;5034530;28;20029;-50
2022/04/24 10:28:20;;;;;;;31.10;19.52;;;10.70;99.90;;;;;;5036185;28;20055;-51
2022/04/24 10:31:07;;;;;;;32.40;19.02;;;10.80;99.90;;;;;;5018988;28;20439;-51
2022/04/24 10:33:34;;;;;;;28.85;18.35;;;10.90;99.90;;;;;;5038420;28;20116;-51
2022/04/24 10:36:10;;;;;;;29.10;17.80;;;10.90;99.90;;;;;;5320972;22;20046;-52
2022/04/24 10:38:57;;;;;;;26.55;17.90;;;10.90;99.90;;;;;;5037823;28;20036;-51
2022/04/24 10:41:32;;;;;;;25.83;16.98;;;10.90;99.90;;;;;;5028182;28;20044;-51
2022/04/24 10:44:09;;;;;;;26.30;18.48;;;11.00;99.90;;;;;;5028426;28;20042;-50
2022/04/24 10:46:39;;;;;;;27.58;18.63;;;11.00;99.90;;;;;;5027604;28;20450;-52
2022/04/24 10:49:13;;;;;;;24.88;17.02;;;11.10;99.90;;;;;;5028297;28;20033;-51
2022/04/24 10:51:56;;;;;;;27.42;17.55;;;11.10;99.90;;;;;;5047193;28;20037;-49
2022/04/24 10:54:34;;;;;;;25.88;17.20;;;11.10;99.90;;;;;;5032539;28;20140;-49
2022/04/24 10:57:01;;;;;;;26.85;16.98;;;11.20;99.90;;;;;;5021623;28;20052;-51
2022/04/24 10:59:41;;;;;;;24.83;16.95;;;11.30;99.90;;;;;;5046855;28;20404;-51
2022/04/24 11:02:09;;;;;;;22.27;16.23;;;11.50;99.90;;;;;;5028023;28;20055;-50
2022/04/24 11:04:40;;;;;;;24.40;16.98;;;11.60;99.90;;;;;;5033801;28;20116;-51
2022/04/24 11:07:06;;;;;;;23.65;15.95;;;11.70;99.90;;;;;;5036161;28;20028;-52
2022/04/24 11:09:33;;;;;;;28.45;15.05;;;11.90;99.90;;;;;;5036090;28;20017;-53
2022/04/24 11:12:01;;;;;;;;;;;11.90;99.90;;;;;;5037122;28;20112;-51
2022/04/24 11:14:28;;;;;;;20.25;13.35;;;12.00;99.90;;;;;;5036348;28;19920;-51
2022/04/24 11:16:56;;;;;;;;;;;12.10;99.90;;;;;;5035832;28;20032;-51
2022/04/24 11:19:27;;;;;;;20.30;12.68;;;12.20;99.90;;;;;;5034484;28;20394;-51
2022/04/24 11:22:03;;;;;;;20.25;14.13;;;12.30;99.90;;;;;;5036810;28;21403;-53
2022/04/24 11:24:31;;;;;;;22.58;13.48;;;12.40;99.90;;;;;;5041368;28;20120;-52
2022/04/24 11:27:02;;;;;;;21.42;13.95;;;12.60;99.90;;;;;;5039912;28;20021;-52
2022/04/24 11:29:28;;;;;;;20.55;12.15;;;12.70;99.90;;;;;;5039995;28;20107;-51
2022/04/24 11:31:55;;;;;;;23.08;12.20;;;12.80;99.90;;;;;;5039215;28;20105;-51
2022/04/24 11:34:22;;;;;;;18.30;11.07;;;12.90;99.90;;;;;;5040399;28;20032;-53
2022/04/24 11:36:50;;;;;;;20.40;12.25;;;12.90;99.90;;;;;;5040124;28;20072;-53
2022/04/24 11:39:17;;;;;;;18.90;11.38;;;12.90;99.90;;;;;;5022785;28;20259;-52
2022/04/24 11:41:43;;;;;;;19.95;12.45;;;12.90;99.90;;;;;;5040942;28;20557;-52
2022/04/24 11:52:42;;;;;;;16.58;10.30;;;13.50;99.90;;;;;;5041607;28;20082;-52
2022/04/24 11:55:09;;;;;;;13.70;8.90;;;13.70;99.90;;;;;;5042459;28;20531;-49
2022/04/24 11:57:35;;;;;;;15.27;9.30;;;14.00;99.90;;;;;;5033602;28;20032;-51
2022/04/24 12:00:03;;;;;;;14.05;9.55;;;14.30;99.90;;;;;;5027564;28;20318;-50
2022/04/24 12:02:29;;;;;;;11.95;8.52;;;14.30;99.90;;;;;;5027526;28;20060;-50
2022/04/24 12:04:58;;;;;;;15.95;9.50;;;14.40;99.90;;;;;;5018082;28;20033;-51
2022/04/24 12:07:31;;;;;;;11.80;7.78;;;14.30;99.90;;;;;;5063914;28;20028;-51
2022/04/24 12:10:06;;;;;;;13.60;8.32;;;14.30;99.90;;;;;;5059375;28;20033;-51
2022/04/24 12:12:42;;;;;;;14.80;9.93;;;14.30;99.90;;;;;;5026944;28;20034;-50
2022/04/24 12:15:13;;;;;;;14.35;9.13;;;14.30;99.90;;;;;;5026741;28;20033;-50
2022/04/24 12:17:49;;;;;;;18.65;10.52;;;14.30;99.90;;;;;;5027723;28;20032;-52
2022/04/24 12:20:14;;;;;;;17.58;10.48;;;14.30;99.90;;;;;;5027028;28;20021;-50
2022/04/24 12:22:40;;;;;;;14.07;8.65;;;14.40;99.90;;;;;;5026994;28;20107;-52
2022/04/24 12:25:12;;;;;;;15.80;10.63;;;14.40;99.90;;;;;;5027536;28;20041;-50
2022/04/24 12:27:38;;;;;;;16.08;10.27;;;14.40;99.90;;;;;;5009314;28;20029;-50
2022/04/24 12:30:07;;;;;;;27.13;11.33;;;14.40;99.90;;;;;;5028509;28;20075;-50
2022/04/24 12:32:38;;;;;;;18.35;9.60;;;14.40;99.90;;;;;;5011761;28;20033;-50
2022/04/24 12:35:04;;;;;;;13.52;8.65;;;14.40;99.90;;;;;;5029475;28;20032;-51
2022/04/24 12:37:32;;;;;;;15.10;9.13;;;14.30;99.90;;;;;;5029744;28;20064;-52
2022/04/24 12:39:58;;;;;;;14.57;9.93;;;14.30;99.90;;;;;;5029901;28;20105;-52
2022/04/24 12:42:25;;;;;;;16.05;9.25;;;14.30;99.90;;;;;;5029714;28;20056;-51
2022/04/24 12:44:51;;;;;;;15.82;10.27;;;14.30;99.90;;;;;;5029728;28;20399;-50
2022/04/24 12:47:21;;;;;;;14.35;9.38;;;14.20;99.90;;;;;;5030036;28;20037;-50